Time;durP1;ratioP1;P1;durP2;ratioP2;P2;SDS_P1;SDS_P2;PMS_P1;PMS_P2;Temp;Humidity;BMP_temperature;BMP_pressure;BME280_temperature;BME280_humidity;BME280_pressure;Samples;Min_cycle;Max_cycle;Signal;HPM_P1;HPM_P2
2022/10/21 00:00:33;;;;;;;;;2.75;2.00;;;;;22.28;53.71;100191.91;5075201;27;45242;-48
2022/10/21 00:02:59;;;;;;;;;2.00;2.00;;;;;22.30;53.88;100197.09;5075764;27;45401;-46
2022/10/21 00:05:25;;;;;;;;;3.00;2.00;;;;;22.28;53.73;100199.81;5075798;27;45240;-45
2022/10/21 00:07:50;;;;;;;;;4.00;1.25;;;;;22.29;53.96;100193.59;5075031;28;46969;-44
2022/10/21 00:10:15;;;;;;;;;3.50;2.50;;;;;22.28;53.90;100185.81;5093238;27;45219;-47
2022/10/21 00:12:41;;;;;;;;;6.25;2.25;;;;;22.29;53.73;100184.84;5105288;27;45001;-46
2022/10/21 00:15:07;;;;;;;;;2.00;2.00;;;;;22.28;53.66;100178.72;5103660;28;44912;-50
2022/10/21 00:17:41;;;;;;;;;2.00;2.00;;;;;22.27;53.46;100177.03;5077844;27;47547;-53
2022/10/21 00:20:09;;;;;;;;;3.25;3.25;;;;;22.28;53.83;100180.53;5076520;28;45468;-51
2022/10/21 00:22:35;;;;;;;;;3.00;3.00;;;;;22.28;53.70;100173.44;5078750;27;45812;-57
2022/10/21 00:25:00;;;;;;;;;3.00;3.00;;;;;22.28;53.60;100173.44;5078840;27;45576;-49
2022/10/21 00:27:26;;;;;;;;;2.00;2.00;;;;;22.28;53.77;100169.97;5078374;27;46046;-51
2022/10/21 00:29:51;;;;;;;;;2.00;2.00;;;;;22.28;53.82;100169.97;5077679;27;45314;-48
2022/10/21 00:32:17;;;;;;;;;1.00;1.00;;;;;22.26;53.84;100159.53;5077782;27;45459;-48
2022/10/21 00:34:42;;;;;;;;;1.50;1.50;;;;;22.28;53.48;100167.31;5078575;28;45520;-49
2022/10/21 00:37:11;;;;;;;;;1.50;1.50;;;;;22.28;53.66;100162.03;5077933;28;45341;-51
2022/10/21 00:39:37;;;;;;;;;2.00;2.00;;;;;22.28;53.69;100159.41;5077712;27;45251;-51
2022/10/21 00:42:04;;;;;;;;;2.00;2.00;;;;;22.28;53.82;100167.31;5078064;27;45354;-47
2022/10/21 00:44:30;;;;;;;;;1.00;1.00;;;;;22.28;53.55;100162.03;5078512;27;45503;-48
2022/10/21 00:47:11;;;;;;;;;1.50;1.50;;;;;22.26;53.68;100156.03;5079286;27;47348;-54
2022/10/21 00:49:41;;;;;;;;;1.00;1.00;;;;;22.27;53.54;100153.25;5090202;27;45330;-47
2022/10/21 00:52:13;;;;;;;;;1.50;1.50;;;;;22.27;53.54;100149.78;5101007;27;44749;-54
2022/10/21 00:54:40;;;;;;;;;1.50;1.50;;;;;22.27;53.69;100141.88;5083249;27;45345;-50
2022/10/21 00:57:07;;;;;;;;;3.00;2.00;;;;;22.27;53.45;100139.25;5105928;27;45056;-50
2022/10/21 00:59:38;;;;;;;;;2.50;2.00;;;;;22.27;53.48;100139.25;5083496;27;45322;-53
2022/10/21 01:02:03;;;;;;;;;1.75;1.00;;;;;22.26;53.55;100130.50;5078100;27;45406;-52
2022/10/21 01:04:29;;;;;;;;;1.00;1.00;;;;;22.24;53.46;100125.31;5077988;28;45851;-51
2022/10/21 01:06:55;;;;;;;;;3.00;1.75;;;;;22.26;53.37;100121.72;5076216;28;47619;-48
2022/10/21 01:09:21;;;;;;;;;1.00;1.00;;;;;22.25;53.44;100107.69;5077947;27;45378;-46
2022/10/21 01:11:48;;;;;;;;;3.00;2.00;;;;;22.24;53.56;100098.91;5079076;28;45334;-46
2022/10/21 01:14:55;;;;;;;;;1.25;1.25;;;;;22.26;53.54;100095.31;5077773;27;45346;-45
2022/10/21 01:18:31;;;;;;;;;1.25;1.25;;;;;22.24;53.43;100088.34;5077115;27;46299;-45
2022/10/21 01:21:12;;;;;;;;;2.75;1.00;;;;;22.26;53.68;100090.03;4982419;28;45288;-51
2022/10/21 01:24:05;;;;;;;;;1.00;1.00;;;;;22.25;53.52;100089.22;5068242;28;45532;-49
2022/10/21 01:27:20;;;;;;;;;2.00;2.00;;;;;22.24;53.56;100082.25;5084009;27;45752;-47
2022/10/21 01:30:32;;;;;;;;;1.00;1.00;;;;;22.23;53.47;100081.38;4996632;27;45502;-50
2022/10/21 01:33:04;;;;;;;;;1.00;1.00;;;;;22.23;53.50;100086.66;5051568;28;44953;-49
2022/10/21 01:35:56;;;;;;;;;1.50;1.50;;;;;22.23;53.53;100097.22;5082518;28;45162;-49
2022/10/21 01:38:41;;;;;;;;;2.00;2.00;;;;;22.21;53.87;100093.03;5077400;27;45468;-48
2022/10/21 01:41:18;;;;;;;;;2.25;2.25;;;;;22.23;53.25;100102.50;5076880;27;46028;-49
2022/10/21 01:43:53;;;;;;;;;1.50;1.00;;;;;22.23;53.40;100102.50;5077416;28;45207;-44
2022/10/21 01:46:26;;;;;;;;;2.00;2.00;;;;;22.23;53.53;100102.50;5080061;27;45425;-49
2022/10/21 01:48:58;;;;;;;;;2.00;2.00;;;;;22.23;53.66;100099.84;5078965;27;45483;-48
2022/10/21 01:51:26;;;;;;;;;2.00;2.00;;;;;22.24;53.69;100108.63;5089419;27;45519;-48
2022/10/21 01:54:01;;;;;;;;;2.75;2.00;;;;;22.23;53.54;100118.34;5101210;27;44961;-54
2022/10/21 01:56:27;;;;;;;;;1.25;1.00;;;;;22.23;53.49;100133.34;5077717;27;45342;-53
2022/10/21 01:58:53;;;;;;;;;2.75;1.50;;;;;22.23;53.63;100159.75;5077496;27;45358;-54
2022/10/21 02:01:21;;;;;;;;;2.75;1.00;;;;;22.24;53.59;100166.72;5076415;27;45219;-55
2022/10/21 02:03:53;;;;;;;;;2.00;1.00;;;;;22.25;53.44;100189.50;5076800;27;45204;-55
2022/10/21 02:06:18;;;;;;;;;2.00;2.00;;;;;22.23;53.51;100205.44;5076119;27;45421;-55
2022/10/21 02:08:44;;;;;;;;;1.00;1.00;;;;;22.24;53.38;100198.38;5077160;28;45436;-57
2022/10/21 02:11:11;;;;;;;;;1.75;1.75;;;;;22.24;53.64;100215.06;5076449;28;45362;-53
2022/10/21 02:13:53;;;;;;;;;2.00;2.00;;;;;22.24;53.70;100220.34;5076727;27;45334;-54
2022/10/21 02:16:22;;;;;;;;;2.00;2.00;;;;;22.25;53.70;100215.91;5076776;27;45228;-54
2022/10/21 02:18:48;;;;;;;;;1.25;1.25;;;;;22.24;53.78;100209.78;5076320;27;45384;-58
2022/10/21 02:21:18;;;;;;;;;1.75;1.25;;;;;22.24;53.62;100199.22;5076466;27;46327;-56
2022/10/21 02:23:52;;;;;;;;;1.50;1.50;;;;;22.24;53.66;100179.91;5076922;28;45853;-56
2022/10/21 02:26:18;;;;;;;;;1.00;1.00;;;;;22.23;53.69;100165.84;5104741;27;44717;-50
2022/10/21 02:28:43;;;;;;;;;1.00;1.00;;;;;22.23;53.64;100151.81;5105889;27;44878;-51
2022/10/21 02:31:14;;;;;;;;;1.00;1.00;;;;;22.24;53.51;100146.41;5074196;27;45730;-49
2022/10/21 02:34:00;;;;;;;;;3.00;1.00;;;;;22.23;53.42;100128.06;5076379;27;45813;-51
2022/10/21 02:36:38;;;;;;;;;2.75;1.75;;;;;22.25;53.62;100115.59;5074795;28;45450;-51
2022/10/21 02:39:13;;;;;;;;;4.00;1.00;;;;;22.24;53.50;100076.97;5075895;27;45330;-47
2022/10/21 02:41:42;;;;;;;;;2.25;1.00;;;;;22.24;53.57;100035.56;5075494;27;46601;-50
2022/10/21 02:44:08;;;;;;;;;1.00;1.00;;;;;22.23;53.58;100038.31;5075818;27;45728;-47
2022/10/21 02:46:40;;;;;;;;;2.00;2.00;;;;;22.24;53.68;100040.84;5077806;27;45504;-51
2022/10/21 02:49:06;;;;;;;;;1.00;1.00;;;;;22.23;53.74;100038.31;5097455;27;45456;-50
2022/10/21 02:51:31;;;;;;;;;3.00;2.00;;;;;22.24;53.64;100038.19;5084560;27;46086;-46
2022/10/21 02:53:57;;;;;;;;;2.00;2.00;;;;;22.24;53.71;100046.13;5088574;27;45368;-48
2022/10/21 02:56:22;;;;;;;;;2.00;2.00;;;;;22.24;53.56;100037.38;5084058;27;45301;-46
2022/10/21 02:58:48;;;;;;;;;1.00;1.00;;;;;22.24;53.59;100037.38;5106301;27;44777;-54
2022/10/21 03:01:13;;;;;;;;;1.00;1.00;;;;;22.24;53.58;100035.56;5102946;28;66006;-47
2022/10/21 03:03:38;;;;;;;;;1.75;1.75;;;;;22.23;53.75;100039.16;5101398;27;45306;-55
2022/10/21 03:06:04;;;;;;;;;1.75;1.75;;;;;22.23;53.53;100027.75;5076995;28;50803;-48
2022/10/21 03:08:29;;;;;;;;;1.00;1.00;;;;;22.23;53.62;100047.06;5076384;28;45734;-51
2022/10/21 03:10:54;;;;;;;;;1.75;1.00;;;;;22.23;53.90;100047.06;5076278;27;45384;-49
2022/10/21 03:13:21;;;;;;;;;1.00;1.00;;;;;22.24;53.79;100056.69;5074356;28;45417;-50
2022/10/21 03:15:50;;;;;;;;;1.50;1.50;;;;;22.26;53.90;100071.56;5076271;27;45836;-48
2022/10/21 03:18:15;;;;;;;;;1.00;1.00;;;;;22.23;53.59;100081.38;5085132;27;45287;-49
2022/10/21 03:20:41;;;;;;;;;2.25;2.25;;;;;22.24;53.83;100098.91;5098655;27;45998;-51
2022/10/21 03:23:06;;;;;;;;;2.00;2.00;;;;;22.25;54.00;100110.31;5076204;27;45768;-50
2022/10/21 03:25:31;;;;;;;;;1.00;0.75;;;;;22.26;53.78;100127.00;5076371;28;45760;-52
2022/10/21 03:27:57;;;;;;;;;1.50;1.00;;;;;22.26;53.48;100127.00;5080739;28;45539;-52
2022/10/21 03:30:22;;;;;;;;;1.75;1.25;;;;;22.23;53.58;100113.06;5101689;28;46421;-48
2022/10/21 03:32:47;;;;;;;;;2.00;2.00;;;;;22.26;53.81;100111.16;5102055;27;44707;-52
2022/10/21 03:35:13;;;;;;;;;1.25;1.25;;;;;22.23;53.91;100096.41;5101104;27;45280;-48
2022/10/21 03:37:38;;;;;;;;;1.00;1.00;;;;;22.27;53.70;100094.38;5089644;28;46069;-50
2022/10/21 03:40:05;;;;;;;;;0.00;0.00;;;;;22.24;53.85;100083.06;5081160;28;48044;-49
2022/10/21 03:42:30;;;;;;;;;2.25;1.00;;;;;22.25;53.79;100083.94;5080486;27;45275;-50
2022/10/21 03:44:55;;;;;;;;;1.00;1.00;;;;;22.25;53.76;100099.78;5079449;28;51111;-52
2022/10/21 03:47:20;;;;;;;;;1.25;1.25;;;;;22.23;53.78;100089.31;5078879;28;45298;-53
2022/10/21 03:49:46;;;;;;;;;1.00;1.00;;;;;22.24;53.79;100098.91;5077173;27;45449;-54
2022/10/21 03:52:11;;;;;;;;;3.00;2.00;;;;;22.21;53.89;100082.47;5079555;27;45471;-54
2022/10/21 03:54:36;;;;;;;;;0.25;0.25;;;;;22.24;53.90;100114.75;5081374;27;45428;-51
2022/10/21 03:57:02;;;;;;;;;2.25;2.00;;;;;22.23;53.96;100107.78;5081618;27;45543;-47
2022/10/21 03:59:27;;;;;;;;;3.50;1.00;;;;;22.23;54.05;100097.22;5082848;28;45322;-45
2022/10/21 04:01:52;;;;;;;;;2.00;2.00;;;;;22.24;53.90;100098.91;5091034;28;45189;-51
2022/10/21 04:04:18;;;;;;;;;1.00;1.00;;;;;22.24;53.71;100114.75;5093904;28;44852;-52
2022/10/21 04:06:43;;;;;;;;;3.75;1.00;;;;;22.23;53.75;100115.69;5080112;27;45459;-51
2022/10/21 04:09:08;;;;;;;;;1.00;1.00;;;;;22.23;53.84;100115.69;5078064;28;55212;-50
2022/10/21 04:11:34;;;;;;;;;1.00;1.00;;;;;22.23;53.82;100105.13;5078575;27;45318;-50
2022/10/21 04:13:59;;;;;;;;;2.25;2.00;;;;;22.23;53.83;100114.88;5078846;27;45212;-48
2022/10/21 04:16:24;;;;;;;;;1.00;1.00;;;;;22.24;53.95;100116.56;5078460;28;51731;-47
2022/10/21 04:18:50;;;;;;;;;2.00;2.00;;;;;22.23;54.03;100113.06;5077272;28;46412;-48
2022/10/21 04:21:15;;;;;;;;;1.00;1.00;;;;;22.23;53.90;100113.06;5078207;28;45299;-48
2022/10/21 04:23:41;;;;;;;;;1.00;1.00;;;;;22.24;53.90;100114.75;5078776;28;45471;-46
2022/10/21 04:26:10;;;;;;;;;1.50;1.50;;;;;22.21;53.78;100093.84;5096570;27;45407;-45
2022/10/21 04:28:36;;;;;;;;;3.00;1.00;;;;;22.23;53.96;100102.50;5088895;27;46704;-51
2022/10/21 04:31:01;;;;;;;;;2.00;1.25;;;;;22.24;54.02;100098.91;5078572;27;45374;-53
2022/10/21 04:33:26;;;;;;;;;1.00;1.00;;;;;22.23;54.07;100105.13;5078878;27;45415;-51
2022/10/21 04:35:57;;;;;;;;;4.00;1.25;;;;;22.24;53.75;100108.63;5078807;27;45423;-55
2022/10/21 04:38:23;;;;;;;;;3.00;1.75;;;;;22.22;54.07;100100.81;5078192;27;45973;-51
2022/10/21 04:40:59;;;;;;;;;4.25;3.00;;;;;22.23;54.17;100102.50;5090493;27;45835;-55
2022/10/21 04:43:25;;;;;;;;;4.00;4.00;;;;;22.21;54.53;100114.13;5096012;28;45364;-53
2022/10/21 04:45:50;;;;;;;;;5.00;5.00;;;;;22.23;54.23;100109.59;5080519;28;45409;-54
2022/10/21 04:48:16;;;;;;;;;6.00;5.75;;;;;22.18;53.92;100099.38;5077037;28;48924;-48
2022/10/21 04:50:41;;;;;;;;;9.00;8.75;;;;;22.24;54.26;100106.81;5077490;27;45477;-47
2022/10/21 04:53:06;;;;;;;;;14.00;11.00;;;;;22.23;53.92;100113.06;5077456;28;55953;-50
2022/10/21 04:55:32;;;;;;;;;10.75;10.75;;;;;22.23;54.21;100112.22;5076664;27;45279;-46
2022/10/21 04:57:57;;;;;;;;;10.00;10.00;;;;;22.24;54.20;100113.91;5078174;28;56306;-45
2022/10/21 05:00:22;;;;;;;;;8.50;8.50;;;;;22.23;54.10;100107.78;5078233;27;45443;-51
2022/10/21 05:02:47;;;;;;;;;14.00;12.50;;;;;22.23;54.37;100107.78;5077237;28;47638;-50
2022/10/21 05:05:13;;;;;;;;;13.50;12.50;;;;;22.20;54.63;100112.44;5084234;28;45286;-48
2022/10/21 05:07:38;;;;;;;;;16.25;16.25;;;;;22.18;54.39;100109.94;5101624;28;48590;-46
2022/10/21 05:10:04;;;;;;;;;23.00;22.50;;;;;22.16;54.70;100100.44;5105013;27;45156;-47
2022/10/21 05:12:29;;;;;;;;;25.50;25.50;;;;;22.13;54.77;100101.50;5093644;27;45322;-50
2022/10/21 05:14:55;;;;;;;;;21.50;21.00;;;;;22.10;54.75;100104.38;5085914;28;45526;-53
2022/10/21 05:17:20;;;;;;;;;27.50;26.50;;;;;22.09;54.94;100108.81;5092992;28;46306;-54
2022/10/21 05:19:45;;;;;;;;;30.33;28.67;;;;;22.09;55.00;100118.53;5098848;28;47011;-51
2022/10/21 05:22:11;;;;;;;;;26.00;25.50;;;;;22.07;55.37;100117.81;5091226;27;45299;-52
2022/10/21 05:24:36;;;;;;;;;29.50;27.25;;;;;22.06;56.12;100131.94;5078114;27;45412;-53
2022/10/21 05:27:02;;;;;;;;;28.00;26.67;;;;;22.05;56.32;100125.81;5077383;27;54498;-51
2022/10/21 05:29:27;;;;;;;;;24.50;22.50;;;;;22.06;56.17;100127.50;5078539;27;45325;-48
2022/10/21 05:31:52;;;;;;;;;23.50;22.75;;;;;22.06;56.58;100127.50;5078795;27;45456;-53
2022/10/21 05:34:18;;;;;;;;;24.00;22.67;;;;;22.08;56.44;100130.03;5079131;28;49486;-48
2022/10/21 05:36:43;;;;;;;;;21.25;20.00;;;;;22.09;56.63;100126.44;5077088;27;46178;-49
2022/10/21 05:39:10;;;;;;;;;24.25;20.75;;;;;22.09;57.22;100115.91;5077295;27;45350;-48
2022/10/21 05:41:36;;;;;;;;;18.75;18.75;;;;;22.09;57.37;100108.81;5077189;27;45373;-51
2022/10/21 05:44:01;;;;;;;;;19.50;17.75;;;;;22.06;56.88;100111.66;5077691;27;45655;-44
2022/10/21 05:46:26;;;;;;;;;19.50;17.25;;;;;22.06;57.25;100116.94;5077591;28;45375;-49
2022/10/21 05:48:52;;;;;;;;;15.50;14.50;;;;;22.06;57.10;100121.38;5076775;27;45382;-50
2022/10/21 05:51:24;;;;;;;;;18.00;17.25;;;;;22.07;57.01;100128.34;5077381;28;45290;-49
2022/10/21 05:53:49;;;;;;;;;15.00;14.25;;;;;22.06;57.52;100129.31;5093034;27;45449;-49
2022/10/21 05:56:14;;;;;;;;;14.25;11.00;;;;;22.09;57.51;100137.00;5076900;28;46657;-50
2022/10/21 05:58:40;;;;;;;;;15.50;12.00;;;;;22.09;57.16;100143.13;5091353;28;44753;-47
2022/10/21 06:01:05;;;;;;;;;13.75;13.00;;;;;22.09;56.98;100153.66;5089563;27;45230;-47
2022/10/21 06:03:32;;;;;;;;;13.00;11.50;;;;;22.08;57.17;100159.06;5081612;28;45318;-51
2022/10/21 06:05:59;;;;;;;;;15.00;15.00;;;;;22.11;57.13;100176.47;5081369;27;46621;-46
2022/10/21 06:08:25;;;;;;;;;18.25;13.00;;;;;22.11;56.81;100179.94;5078910;27;45743;-50
2022/10/21 06:11:09;;;;;;;;;4.00;4.00;;;;;22.12;57.29;100186.91;5082486;27;45483;-49
2022/10/21 06:13:35;;;;;;;;;10.00;10.00;;;;;22.13;57.15;100200.97;5096436;27;44843;-45
2022/10/21 06:16:00;;;;;;;;;12.25;10.75;;;;;22.13;56.88;100204.44;5098700;27;45355;-48
2022/10/21 06:18:26;;;;;;;;;15.25;12.25;;;;;22.13;56.82;100211.50;5085080;27;45334;-51
2022/10/21 06:20:51;;;;;;;;;13.00;12.75;;;;;22.14;56.78;100205.28;5083354;27;45784;-50
2022/10/21 06:23:17;;;;;;;;;14.75;14.00;;;;;22.13;56.89;100198.31;5079045;28;45603;-52
2022/10/21 06:25:52;;;;;;;;;13.00;13.00;;;;;22.15;56.84;100215.72;5079728;27;45425;-49
2022/10/21 06:28:18;;;;;;;;;12.75;11.25;;;;;22.15;56.72;100212.25;5088262;27;45424;-48
2022/10/21 06:30:43;;;;;;;;;8.50;8.50;;;;;22.15;56.53;100207.81;5093617;27;45444;-47
2022/10/21 06:33:08;;;;;;;;;8.50;7.00;;;;;22.14;56.65;100219.31;5084271;28;45493;-49
2022/10/21 06:35:33;;;;;;;;;13.00;12.00;;;;;22.15;56.65;100252.66;5082695;28;58346;-48
2022/10/21 06:37:59;;;;;;;;;11.00;10.25;;;;;22.15;56.52;100260.59;5085256;28;53745;-48
2022/10/21 06:40:24;;;;;;;;;11.75;10.00;;;;;22.15;56.61;100257.13;5084749;27;49946;-49
2022/10/21 06:42:50;;;;;;;;;10.00;9.75;;;;;22.17;56.67;100250.78;5081134;28;45365;-51
2022/10/21 06:45:15;;;;;;;;;8.75;8.25;;;;;22.17;56.53;100255.19;5086587;27;46216;-51
2022/10/21 06:47:40;;;;;;;;;12.00;10.00;;;;;22.16;56.47;100257.00;5086300;27;45306;-49
2022/10/21 06:50:06;;;;;;;;;10.25;9.50;;;;;22.18;56.28;100262.16;5091192;28;45379;-54
2022/10/21 06:52:32;;;;;;;;;8.50;8.50;;;;;22.18;56.30;100256.88;5090201;27;44938;-55
2022/10/21 06:54:57;;;;;;;;;9.50;9.50;;;;;22.18;56.33;100254.25;5083905;27;46450;-54
2022/10/21 06:57:23;;;;;;;;;10.00;10.00;;;;;22.17;56.42;100257.81;5084054;28;45255;-53
2022/10/21 06:59:48;;;;;;;;;13.00;8.00;;;;;22.13;56.85;100254.56;5083327;28;45430;-52
2022/10/21 07:02:14;;;;;;;;;5.75;5.50;;;;;22.19;56.33;100255.94;5081709;27;45485;-53
2022/10/21 07:04:43;;;;;;;;;8.50;6.75;;;;;22.19;56.68;100240.09;5082119;27;45937;-53
2022/10/21 07:07:08;;;;;;;;;9.00;9.00;;;;;22.20;56.61;100244.41;5088527;27;45398;-53
2022/10/21 07:09:33;;;;;;;;;7.00;7.00;;;;;22.15;56.43;100230.72;5091658;28;45274;-53
2022/10/21 07:11:59;;;;;;;;;9.00;8.50;;;;;22.22;56.53;100232.78;5084628;28;45616;-50
2022/10/21 07:14:25;;;;;;;;;11.00;9.25;;;;;22.23;56.34;100238.94;5086667;27;46132;-48
2022/10/21 07:16:52;;;;;;;;;6.25;6.25;;;;;22.20;55.94;100242.63;5097065;27;44785;-48
2022/10/21 07:19:17;;;;;;;;;9.25;9.00;;;;;22.26;56.05;100275.66;5101568;28;45181;-49
2022/10/21 07:21:43;;;;;;;;;9.75;8.00;;;;;22.28;56.12;100296.66;5100553;27;44784;-51
2022/10/21 07:24:09;;;;;;;;;9.00;8.00;;;;;22.27;56.39;100300.25;5079210;27;46126;-53
2022/10/21 07:26:34;;;;;;;;;6.50;6.50;;;;;22.29;56.18;100306.28;5080882;28;45669;-50
2022/10/21 07:29:00;;;;;;;;;8.75;7.00;;;;;22.28;56.03;100307.22;5085563;28;45253;-48
2022/10/21 07:31:27;;;;;;;;;7.50;7.00;;;;;22.28;56.28;100286.13;5098140;27;45525;-52
2022/10/21 07:33:54;;;;;;;;;8.50;7.00;;;;;22.29;56.17;100258.75;5091379;27;45378;-50
2022/10/21 07:36:23;;;;;;;;;6.75;6.75;;;;;22.27;55.84;100281.78;5078961;27;45916;-48
2022/10/21 07:38:49;;;;;;;;;4.50;4.50;;;;;22.28;56.03;100301.94;5078420;27;45731;-48
2022/10/21 07:41:27;;;;;;;;;5.25;5.25;;;;;22.27;56.32;100316.09;5079876;27;45527;-52
2022/10/21 07:43:53;;;;;;;;;6.25;5.25;;;;;22.27;56.10;100314.28;5079216;27;46540;-48
2022/10/21 07:46:20;;;;;;;;;5.00;4.75;;;;;22.26;56.03;100312.63;5079740;27;45441;-51
2022/10/21 07:48:46;;;;;;;;;7.25;7.25;;;;;22.25;56.05;100316.22;5079529;27;45425;-49
2022/10/21 07:51:14;;;;;;;;;8.25;6.25;;;;;22.24;55.87;100312.72;5080492;27;45275;-50
2022/10/21 07:53:39;;;;;;;;;6.00;5.00;;;;;22.23;56.00;100300.47;5085256;27;46237;-54
2022/10/21 07:56:09;;;;;;;;;7.00;5.00;;;;;22.23;55.54;100304.91;5082158;27;45251;-51
2022/10/21 07:58:35;;;;;;;;;6.75;5.00;;;;;22.27;55.98;100318.75;5079203;28;45449;-52
2022/10/21 08:01:02;;;;;;;;;6.00;6.00;;;;;22.27;55.83;100324.03;5079863;28;45604;-51
2022/10/21 08:03:28;;;;;;;;;5.25;3.50;;;;;22.28;55.87;100315.16;5078925;27;45370;-52
2022/10/21 08:05:54;;;;;;;;;4.00;4.00;;;;;22.27;55.68;100305.53;5073960;28;45395;-50
2022/10/21 08:08:22;;;;;;;;;4.50;4.50;;;;;22.30;55.94;100318.53;5064666;28;45190;-46
2022/10/21 08:10:49;;;;;;;;;6.75;5.00;;;;;22.31;55.94;100320.22;5086146;28;45509;-47
2022/10/21 08:13:15;;;;;;;;;7.75;5.00;;;;;22.30;55.49;100321.16;5083335;28;46114;-48
2022/10/21 08:15:44;;;;;;;;;5.00;5.00;;;;;22.31;55.52;100331.59;5059403;28;45346;-50
2022/10/21 08:18:10;;;;;;;;;4.50;4.50;;;;;22.32;55.81;100322.75;5074650;28;45651;-49
2022/10/21 08:20:39;;;;;;;;;3.25;3.25;;;;;22.33;55.90;100320.94;5059060;28;45330;-50
2022/10/21 08:23:06;;;;;;;;;3.00;2.50;;;;;22.34;55.86;100317.34;5059210;28;46101;-47
2022/10/21 08:25:31;;;;;;;;;5.00;5.00;;;;;22.35;55.63;100321.66;5062304;28;45256;-46
2022/10/21 08:27:57;;;;;;;;;4.50;4.00;;;;;22.36;55.70;100326.00;5078158;28;44987;-46
2022/10/21 08:30:22;;;;;;;;;4.25;4.00;;;;;22.38;55.80;100326.75;5068155;28;45397;-46
2022/10/21 08:32:47;;;;;;;;;4.00;4.00;;;;;22.39;55.95;100331.06;5086257;28;46246;-46
2022/10/21 09:47:47;;;;;;;;;3.75;3.00;;;;;22.43;56.44;100324.66;5077473;28;45353;-50
2022/10/21 09:50:15;;;;;;;;;4.50;3.00;;;;;22.43;56.53;100329.09;5063175;28;46273;-47
2022/10/21 09:52:47;;;;;;;;;4.00;4.00;;;;;22.39;56.83;100328.44;5056825;28;45347;-47
2022/10/21 09:55:14;;;;;;;;;3.00;3.00;;;;;22.39;56.47;100329.25;5058137;28;45277;-46
2022/10/21 09:58:02;;;;;;;;;4.00;4.00;;;;;22.43;56.53;100329.94;5058086;28;45599;-44
2022/10/21 10:00:48;;;;;;;;;5.00;3.25;;;;;22.43;56.72;100335.22;5057488;28;45646;-44
2022/10/21 10:03:44;;;;;;;;;3.25;3.00;;;;;22.45;56.40;100343.84;5057647;28;45770;-45
2022/10/21 10:06:10;;;;;;;;;4.50;4.00;;;;;22.46;56.50;100350.00;5057563;28;45395;-45
2022/10/21 10:08:41;;;;;;;;;5.00;3.75;;;;;22.45;56.46;100346.50;5059117;28;45338;-48
2022/10/21 10:11:10;;;;;;;;;7.00;2.75;;;;;22.46;56.52;100353.47;5058939;28;47116;-47
2022/10/21 10:13:47;;;;;;;;;2.75;2.75;;;;;22.46;56.49;100350.81;5077322;28;45157;-47
2022/10/21 10:16:42;;;;;;;;;3.75;2.75;;;;;22.48;56.26;100348.94;5057563;28;45338;-46
2022/10/21 10:19:27;;;;;;;;;4.00;3.00;;;;;22.49;56.77;100347.16;5042943;28;45407;-51
2022/10/21 10:22:12;;;;;;;;;5.00;3.00;;;;;22.48;56.37;100348.94;5055681;28;45353;-47
2022/10/21 10:24:39;;;;;;;;;3.50;3.50;;;;;22.50;56.72;100352.31;5055846;28;45251;-49
2022/10/21 10:27:22;;;;;;;;;3.75;3.25;;;;;22.49;56.54;100345.34;5056351;28;45357;-46
2022/10/21 10:29:57;;;;;;;;;3.00;3.00;;;;;22.48;56.29;100346.28;5055861;28;45458;-47
2022/10/21 10:32:27;;;;;;;;;5.00;4.00;;;;;22.49;56.40;100361.19;5055779;28;47157;-44
2022/10/21 10:34:56;;;;;;;;;3.00;3.00;;;;;22.51;56.26;100354.00;5055916;28;45791;-46
2022/10/21 10:37:26;;;;;;;;;5.25;2.50;;;;;22.51;56.92;100345.22;5062461;28;45357;-51
2022/10/21 10:39:58;;;;;;;;;2.25;2.25;;;;;22.52;56.55;100338.97;5070558;28;45236;-49
2022/10/21 10:42:40;;;;;;;;;4.50;3.75;;;;;22.52;56.12;100342.47;5080929;28;45395;-48
2022/10/21 10:45:15;;;;;;;;;3.00;3.00;;;;;22.54;56.56;100342.34;5075710;27;45780;-47
2022/10/21 10:47:45;;;;;;;;;5.25;3.00;;;;;22.53;56.56;100340.66;5075812;28;45326;-50
2022/10/21 10:50:36;;;;;;;;;3.00;2.00;;;;;22.53;56.27;100346.81;5075722;28;45479;-47
2022/10/21 10:53:20;;;;;;;;;3.75;2.00;;;;;22.54;56.56;100345.81;5070899;28;45567;-44
2022/10/21 10:55:53;;;;;;;;;5.75;4.00;;;;;22.54;56.51;100337.91;5076191;28;45804;-46
2022/10/21 10:58:19;;;;;;;;;4.50;4.50;;;;;22.58;56.41;100342.97;5078393;27;45464;-49
2022/10/21 11:00:46;;;;;;;;;5.75;3.25;;;;;22.57;56.40;100338.66;5084880;28;45289;-48
2022/10/21 11:03:21;;;;;;;;;3.25;3.25;;;;;22.55;56.36;100344.88;5080730;28;47122;-49
2022/10/21 11:05:50;;;;;;;;;4.25;4.25;;;;;22.53;56.11;100341.53;5082810;28;45440;-47
2022/10/21 11:08:36;;;;;;;;;3.00;3.00;;;;;22.51;56.07;100332.88;5091681;28;44732;-49
2022/10/21 11:11:35;;;;;;;;;4.25;4.25;;;;;22.51;56.20;100326.72;5091573;28;44747;-50
2022/10/21 11:14:00;;;;;;;;;5.00;3.75;;;;;22.50;56.19;100325.91;5094242;28;45485;-53
2022/10/21 11:17:04;;;;;;;;;3.00;2.00;;;;;22.50;56.07;100328.53;5069882;28;45380;-52
2022/10/21 11:19:50;;;;;;;;;3.75;3.75;;;;;22.47;55.98;100336.66;5053197;28;45788;-53
2022/10/21 11:22:50;;;;;;;;;4.50;4.00;;;;;22.47;56.35;100339.31;5055913;28;45412;-48
2022/10/21 11:25:25;;;;;;;;;5.50;4.00;;;;;22.47;55.97;100331.38;5055050;28;47461;-51
2022/10/21 11:27:56;;;;;;;;;3.75;3.50;;;;;22.48;56.08;100329.59;5054970;28;45894;-50
2022/10/21 11:30:29;;;;;;;;;3.75;2.50;;;;;22.47;55.69;100339.31;5055037;28;45479;-51
2022/10/21 11:33:13;;;;;;;;;3.00;3.00;;;;;22.46;55.35;100340.25;5058056;28;45635;-48
2022/10/21 11:35:50;;;;;;;;;3.00;3.00;;;;;22.45;55.42;100343.84;5070321;28;47146;-49
2022/10/21 11:38:28;;;;;;;;;5.75;2.75;;;;;22.45;55.02;100351.78;5062929;28;45242;-51
2022/10/21 11:40:56;;;;;;;;;4.50;3.00;;;;;22.45;55.24;100346.50;5054111;28;45368;-52
2022/10/21 11:43:53;;;;;;;;;2.50;2.00;;;;;22.45;55.16;100337.75;5055308;28;45246;-51
2022/10/21 11:46:27;;;;;;;;;2.00;2.00;;;;;22.45;54.76;100338.56;5058441;28;48017;-52
2022/10/21 11:49:08;;;;;;;;;4.50;2.25;;;;;22.45;54.67;100348.31;5058919;28;45393;-52
2022/10/21 11:51:39;;;;;;;;;4.00;2.25;;;;;22.44;54.49;100343.97;5065184;28;45338;-48
2022/10/21 11:54:04;;;;;;;;;4.00;3.00;;;;;22.44;54.64;100347.44;5060932;28;45612;-51
2022/10/21 11:56:54;;;;;;;;;4.00;3.00;;;;;22.44;54.73;100341.34;5074304;28;45615;-48
2022/10/21 11:59:29;;;;;;;;;3.25;3.25;;;;;22.43;53.76;100337.88;5071666;28;45873;-52
2022/10/21 12:02:20;;;;;;;;;4.00;2.25;;;;;22.44;53.79;100336.88;5073099;28;45399;-49
2022/10/21 12:04:59;;;;;;;;;3.00;3.00;;;;;22.44;53.73;100336.88;5073586;28;45469;-48
2022/10/21 12:07:49;;;;;;;;;2.00;2.00;;;;;22.44;54.07;100336.06;5073769;28;45435;-48
2022/10/21 12:10:25;;;;;;;;;5.25;3.25;;;;;22.45;54.33;100337.75;5057718;28;45781;-47
2022/10/21 12:12:53;;;;;;;;;4.00;4.00;;;;;22.45;54.06;100338.56;5057304;28;45381;-54
2022/10/21 12:15:29;;;;;;;;;5.00;3.00;;;;;22.46;53.94;100326.22;5059971;28;45348;-48
2022/10/21 12:17:56;;;;;;;;;3.50;3.50;;;;;22.45;53.49;100327.19;5059067;28;45571;-50
2022/10/21 12:20:25;;;;;;;;;2.00;2.00;;;;;22.45;53.42;100317.44;5058558;28;45306;-50
2022/10/21 12:23:01;;;;;;;;;1.50;1.50;;;;;22.45;53.58;100316.63;5058287;28;45724;-48
2022/10/21 12:26:05;;;;;;;;;2.75;2.75;;;;;22.45;53.38;100317.44;5058978;28;45663;-48
2022/10/21 12:28:43;;;;;;;;;4.75;3.00;;;;;22.44;53.16;100307.00;5059295;28;46399;-50
2022/10/21 12:31:27;;;;;;;;;2.50;2.50;;;;;22.44;52.38;100312.28;5057836;28;45717;-49
2022/10/21 12:33:53;;;;;;;;;2.00;2.00;;;;;22.42;52.59;100315.06;5063130;28;45338;-52
2022/10/21 12:36:37;;;;;;;;;3.50;2.00;;;;;22.41;52.45;100305.44;5064351;28;45231;-47
2022/10/21 12:39:05;;;;;;;;;3.00;3.00;;;;;22.41;52.67;100305.44;5058040;28;47221;-50
2022/10/21 12:41:36;;;;;;;;;2.00;1.75;;;;;22.41;52.05;100318.63;5059374;28;45869;-47
2022/10/21 12:44:04;;;;;;;;;3.00;2.00;;;;;22.40;52.34;100316.91;5062340;28;45447;-50
2022/10/21 12:46:29;;;;;;;;;1.25;1.25;;;;;22.39;51.93;100317.88;5079012;28;45339;-48
2022/10/21 12:48:56;;;;;;;;;3.00;2.00;;;;;22.40;52.28;100314.28;5058350;28;46743;-45